createdAt,value
2018-01-20T00:00:55.802Z,14.00
2018-01-20T00:03:23.587Z,13.90
2018-01-20T00:05:51.379Z,13.90
2018-01-20T00:08:19.946Z,13.90
2018-01-20T00:10:59.723Z,13.90
2018-01-20T00:13:27.515Z,13.90
2018-01-20T00:15:55.324Z,13.90
2018-01-20T00:18:23.895Z,13.90
2018-01-20T00:20:51.742Z,13.90
2018-01-20T00:23:19.625Z,13.90
2018-01-20T00:25:53.919Z,13.80
2018-01-20T00:28:21.720Z,13.80
2018-01-20T00:30:50.344Z,13.80
2018-01-20T00:33:18.126Z,13.80
2018-01-20T00:35:45.945Z,13.80
2018-01-20T00:38:14.492Z,13.70
2018-01-20T00:40:42.375Z,13.80
2018-01-20T00:43:10.218Z,13.70
2018-01-20T00:45:37.991Z,13.70
2018-01-20T00:48:05.823Z,13.70
2018-01-20T00:50:33.595Z,13.70
2018-01-20T00:53:01.400Z,13.70
2018-01-20T00:55:29.980Z,13.60
2018-01-20T00:57:57.826Z,13.60
2018-01-20T01:00:25.685Z,13.60
2018-01-20T01:02:53.497Z,13.60
2018-01-20T01:05:21.283Z,13.60
2018-01-20T01:07:49.195Z,13.60
2018-01-20T01:10:16.991Z,13.50
2018-01-20T01:12:44.783Z,13.50
2018-01-20T01:15:13.340Z,13.50
2018-01-20T01:17:41.906Z,13.50
2018-01-20T01:20:09.750Z,13.50
2018-01-20T01:22:37.552Z,13.50
2018-01-20T01:25:06.129Z,13.40
2018-01-20T01:27:34.718Z,13.40
2018-01-20T01:30:03.362Z,13.40
2018-01-20T01:32:31.179Z,13.40
2018-01-20T01:34:59.000Z,13.40
2018-01-20T01:37:26.797Z,13.40
2018-01-20T01:39:55.470Z,13.40
2018-01-20T01:42:24.049Z,13.30
2018-01-20T01:44:51.843Z,13.30
2018-01-20T01:47:19.683Z,13.30
2018-01-20T01:49:47.574Z,13.30
2018-01-20T01:52:15.362Z,13.30
2018-01-20T01:54:43.159Z,13.30
2018-01-20T01:57:11.017Z,13.30
2018-01-20T01:59:38.852Z,13.20
2018-01-20T02:02:06.661Z,13.30
2018-01-20T02:04:34.469Z,13.20
2018-01-20T02:07:02.342Z,13.20
2018-01-20T02:09:30.154Z,13.20
2018-01-20T02:11:57.974Z,13.10
2018-01-20T02:14:25.803Z,13.20
2018-01-20T02:16:54.358Z,13.10
2018-01-20T02:19:22.199Z,13.10
2018-01-20T02:21:50.016Z,13.10
2018-01-20T02:24:18.650Z,13.10
2018-01-20T02:26:47.226Z,13.10
2018-01-20T02:29:15.011Z,13.10
2018-01-20T02:31:42.792Z,13.10
2018-01-20T02:34:10.619Z,13.10
2018-01-20T02:36:38.427Z,13.10
2018-01-20T02:39:06.238Z,13.10
2018-01-20T02:41:34.015Z,13.10
2018-01-20T02:44:01.803Z,13.10
2018-01-20T02:46:29.604Z,13.10
2018-01-20T02:48:58.168Z,13.00
2018-01-20T02:51:26.042Z,13.00
2018-01-20T02:53:54.615Z,13.10
2018-01-20T02:56:22.398Z,13.00
2018-01-20T02:58:50.959Z,13.10
2018-01-20T03:01:18.835Z,13.10
2018-01-20T03:03:46.637Z,13.10
2018-01-20T03:06:14.500Z,13.10
2018-01-20T03:08:42.307Z,13.10
2018-01-20T03:11:10.155Z,13.10
2018-01-20T03:13:37.960Z,13.10
2018-01-20T03:16:05.749Z,13.10
2018-01-20T03:18:33.529Z,13.10
2018-01-20T03:21:01.328Z,13.10
2018-01-20T03:23:29.270Z,13.10
2018-01-20T03:25:57.086Z,13.10
2018-01-20T03:28:24.923Z,13.10
2018-01-20T03:30:52.715Z,13.10
2018-01-20T03:33:20.558Z,13.00
2018-01-20T03:35:48.474Z,13.00
2018-01-20T03:38:16.278Z,13.00
2018-01-20T03:40:44.129Z,13.10
2018-01-20T03:43:11.985Z,13.00
2018-01-20T03:45:39.838Z,13.00
2018-01-20T03:48:07.674Z,13.00
2018-01-20T03:50:35.460Z,13.00
2018-01-20T03:53:04.085Z,13.00
2018-01-20T03:55:31.925Z,13.00
2018-01-20T03:57:59.786Z,13.00
2018-01-20T04:00:27.591Z,12.90
2018-01-20T04:02:55.432Z,12.90
2018-01-20T04:05:23.233Z,12.90
2018-01-20T04:07:51.052Z,12.80
2018-01-20T04:10:18.903Z,12.90
2018-01-20T04:12:47.460Z,12.90
2018-01-20T04:15:16.086Z,12.90
2018-01-20T04:17:43.908Z,12.90
2018-01-20T04:20:11.731Z,12.90
2018-01-20T04:22:39.592Z,12.90
2018-01-20T04:25:07.440Z,12.90
2018-01-20T04:27:35.272Z,13.00
2018-01-20T04:30:03.134Z,12.90
2018-01-20T04:32:30.941Z,12.90
2018-01-20T04:34:58.719Z,12.90
2018-01-20T04:37:26.530Z,12.90
2018-01-20T04:39:54.404Z,12.90
2018-01-20T04:42:22.961Z,12.90
2018-01-20T04:44:50.729Z,12.80
2018-01-20T04:47:18.559Z,12.90
2018-01-20T04:49:46.381Z,12.90
2018-01-20T04:52:14.198Z,12.90
2018-01-20T04:54:42.023Z,12.80
2018-01-20T04:57:09.840Z,12.80
2018-01-20T04:59:37.631Z,12.80
2018-01-20T05:02:05.506Z,12.80
2018-01-20T05:04:34.134Z,12.70
2018-01-20T05:07:01.948Z,12.80
2018-01-20T05:09:29.900Z,12.70
2018-01-20T05:11:57.709Z,12.70
2018-01-20T05:14:26.270Z,12.70
2018-01-20T05:16:54.068Z,12.70
2018-01-20T05:19:21.863Z,12.70
2018-01-20T05:21:49.724Z,12.70
2018-01-20T05:24:17.640Z,12.70
2018-01-20T05:26:45.498Z,12.70
2018-01-20T05:29:14.066Z,12.70
2018-01-20T05:31:41.891Z,12.60
2018-01-20T05:34:10.477Z,12.60
2018-01-20T05:36:38.308Z,12.60
2018-01-20T05:39:06.891Z,12.60
2018-01-20T05:41:35.460Z,12.60
2018-01-20T05:44:03.247Z,12.60
2018-01-20T05:46:31.810Z,12.60
2018-01-20T05:48:59.625Z,12.60
2018-01-20T05:51:27.480Z,12.60
2018-01-20T05:53:55.276Z,12.60
2018-01-20T05:56:23.061Z,12.60
2018-01-20T05:58:50.872Z,12.60
2018-01-20T06:01:18.675Z,12.60
2018-01-20T06:03:46.490Z,12.60
2018-01-20T06:06:14.332Z,12.60
2018-01-20T06:08:42.142Z,12.70
2018-01-20T06:11:09.953Z,12.70
2018-01-20T06:13:37.759Z,12.70
2018-01-20T06:16:05.636Z,12.70
2018-01-20T06:18:33.503Z,12.70
2018-01-20T06:21:01.316Z,12.70
2018-01-20T06:23:29.162Z,12.70
2018-01-20T06:25:57.033Z,12.70
2018-01-20T06:28:24.874Z,12.70
2018-01-20T06:30:52.668Z,12.70
2018-01-20T06:33:20.444Z,12.70
2018-01-20T06:35:48.311Z,12.70
2018-01-20T06:38:16.185Z,12.60
2018-01-20T06:40:44.003Z,12.60
2018-01-20T06:43:11.787Z,12.60
2018-01-20T06:45:39.577Z,12.60
2018-01-20T06:48:07.363Z,12.60
2018-01-20T06:50:35.908Z,12.60
2018-01-20T06:53:03.708Z,12.60
2018-01-20T06:55:32.268Z,12.60
2018-01-20T06:58:00.171Z,12.60
2018-01-20T07:00:28.099Z,12.50
2018-01-20T07:02:55.903Z,12.60
2018-01-20T07:05:23.724Z,12.50
2018-01-20T07:07:51.538Z,12.50
2018-01-20T07:10:19.326Z,12.50
2018-01-20T07:12:47.199Z,12.50
2018-01-20T07:15:14.997Z,12.50
2018-01-20T07:17:43.655Z,12.50
2018-01-20T07:20:11.462Z,12.50
2018-01-20T07:22:40.015Z,12.40
2018-01-20T07:25:07.798Z,12.40
2018-01-20T07:27:35.704Z,12.50
2018-01-20T07:30:03.548Z,12.40
2018-01-20T07:32:31.365Z,12.40
2018-01-20T07:34:59.212Z,12.40
2018-01-20T07:37:27.012Z,12.40
2018-01-20T07:40:00.337Z,12.40
2018-01-20T07:42:28.974Z,12.40
2018-01-20T07:44:56.784Z,12.40
2018-01-20T07:47:25.340Z,12.40
2018-01-20T07:49:53.124Z,12.40
2018-01-20T07:52:21.678Z,12.40
2018-01-20T07:54:49.500Z,12.40
2018-01-20T07:57:17.302Z,12.50
2018-01-20T07:59:45.131Z,12.50
2018-01-20T08:02:12.956Z,12.50
2018-01-20T08:04:40.767Z,12.50
2018-01-20T08:07:08.588Z,12.50
2018-01-20T08:09:36.391Z,12.50
2018-01-20T08:12:04.199Z,12.50
2018-01-20T08:14:31.995Z,12.50
2018-01-20T08:17:00.583Z,12.60
2018-01-20T08:19:29.148Z,12.60
2018-01-20T08:21:57.046Z,12.60
2018-01-20T08:24:24.891Z,12.70
2018-01-20T08:26:53.460Z,12.80
2018-01-20T08:29:22.057Z,12.80
2018-01-20T08:31:50.657Z,12.90
2018-01-20T08:34:18.442Z,12.90
2018-01-20T08:36:46.221Z,13.00
2018-01-20T08:39:14.093Z,13.00
2018-01-20T08:41:41.935Z,13.10
2018-01-20T08:44:09.716Z,13.20
2018-01-20T08:46:37.561Z,13.30
2018-01-20T08:49:05.365Z,13.30
2018-01-20T08:51:33.194Z,13.50
2018-01-20T08:54:01.012Z,13.60
2018-01-20T08:56:28.886Z,13.60
2018-01-20T08:58:56.731Z,13.70
2018-01-20T09:01:24.565Z,13.80
2018-01-20T09:03:55.502Z,13.90
2018-01-20T09:06:25.953Z,14.00
2018-01-20T09:08:54.942Z,14.00
2018-01-20T09:11:23.836Z,14.00
2018-01-20T09:13:56.326Z,14.10
2018-01-20T09:16:26.433Z,14.20
2018-01-20T09:18:57.030Z,14.20
2018-01-20T09:21:26.682Z,14.30
2018-01-20T09:23:57.820Z,14.30
2018-01-20T09:26:26.662Z,14.40
2018-01-20T09:28:55.710Z,14.40
2018-01-20T09:35:54.865Z,14.50
2018-01-20T09:38:26.655Z,14.40
2018-01-20T09:40:54.796Z,14.50
2018-01-20T09:43:22.588Z,14.60
2018-01-20T09:45:50.366Z,14.70
2018-01-20T09:48:18.223Z,14.70
2018-01-20T09:50:46.028Z,14.80
2018-01-20T09:53:13.819Z,14.90
2018-01-20T09:55:41.612Z,14.90
2018-01-20T09:58:09.398Z,15.00
2018-01-20T10:00:37.215Z,15.10
2018-01-20T10:03:05.025Z,15.20
2018-01-20T10:05:32.851Z,15.20
2018-01-20T10:08:00.665Z,15.30
2018-01-20T10:10:30.438Z,15.30
2018-01-20T10:12:58.287Z,15.30
2018-01-20T10:15:26.075Z,15.40
2018-01-20T10:17:53.843Z,15.40
2018-01-20T10:20:21.918Z,15.40
2018-01-20T10:22:49.739Z,15.40
2018-01-20T10:25:18.319Z,15.60
2018-01-20T10:27:46.102Z,15.60
2018-01-20T10:30:14.640Z,15.60
2018-01-20T10:32:43.295Z,15.60
2018-01-20T10:35:11.150Z,15.60
2018-01-20T10:37:38.937Z,15.60
2018-01-20T10:40:06.731Z,15.70
2018-01-20T10:42:34.596Z,15.70
2018-01-20T10:45:02.470Z,15.70
2018-01-20T10:47:30.289Z,15.80
2018-01-20T10:49:58.131Z,15.80
2018-01-20T10:52:25.900Z,15.80
2018-01-20T10:54:53.698Z,15.80
2018-01-20T10:57:21.499Z,15.90
2018-01-20T10:59:50.053Z,16.00
2018-01-20T11:02:17.848Z,16.00
2018-01-20T11:04:46.402Z,16.10
2018-01-20T11:07:14.247Z,16.10
2018-01-20T11:09:42.841Z,16.10
2018-01-20T11:12:10.654Z,16.10
2018-01-20T11:14:39.193Z,16.20
2018-01-20T11:17:07.003Z,16.20
2018-01-20T11:19:35.547Z,16.20
2018-01-20T11:22:03.336Z,16.20
2018-01-20T11:24:31.990Z,16.20
2018-01-20T11:26:59.828Z,16.20
2018-01-20T11:29:27.626Z,16.20
2018-01-20T11:31:55.482Z,16.30
2018-01-20T11:34:23.358Z,16.30
2018-01-20T11:36:51.215Z,16.30
2018-01-20T11:39:20.167Z,16.30
2018-01-20T11:41:47.972Z,16.30
2018-01-20T11:44:15.881Z,16.40
2018-01-20T11:46:44.550Z,16.40
2018-01-20T11:49:12.361Z,16.40
2018-01-20T11:51:40.922Z,16.40
2018-01-20T11:54:08.872Z,16.50
2018-01-20T11:56:37.490Z,16.50
2018-01-20T11:59:05.456Z,16.50
2018-01-20T12:01:33.405Z,16.60
2018-01-20T12:04:01.280Z,16.60
2018-01-20T12:06:29.229Z,16.60
2018-01-20T12:08:57.812Z,16.70
2018-01-20T12:11:26.563Z,16.70
2018-01-20T12:13:54.391Z,16.70
2018-01-20T12:16:22.223Z,16.70
2018-01-20T12:18:50.133Z,16.70
2018-01-20T12:21:18.059Z,16.60
2018-01-20T12:23:47.775Z,16.50
2018-01-20T12:26:15.686Z,16.50
2018-01-20T12:28:43.526Z,16.60
2018-01-20T12:31:12.198Z,16.40
2018-01-20T12:33:40.807Z,16.40
2018-01-20T12:36:08.721Z,16.40
2018-01-20T12:38:36.677Z,16.50
2018-01-20T12:41:04.527Z,16.50
2018-01-20T12:43:32.367Z,16.50
2018-01-20T12:46:00.338Z,16.60
2018-01-20T12:48:28.205Z,16.60
2018-01-20T12:50:56.116Z,16.60
2018-01-20T12:53:23.999Z,16.50
2018-01-20T12:55:52.377Z,16.40
2018-01-20T12:58:20.250Z,16.30
2018-01-20T13:00:48.897Z,16.30
2018-01-20T13:03:16.952Z,16.30
2018-01-20T13:05:44.783Z,16.30
2018-01-20T13:08:12.826Z,16.30
2018-01-20T13:10:41.399Z,16.20
2018-01-20T13:13:09.179Z,16.20
2018-01-20T13:15:37.139Z,16.20
2018-01-20T13:18:04.951Z,16.20
2018-01-20T13:20:32.743Z,16.20
2018-01-20T13:23:00.524Z,16.20
2018-01-20T13:25:28.319Z,16.20
2018-01-20T13:27:56.090Z,16.30
2018-01-20T13:30:24.626Z,16.20
2018-01-20T13:32:52.399Z,16.20
2018-01-20T13:35:20.185Z,16.30
2018-01-20T13:37:47.987Z,16.30
2018-01-20T13:40:15.773Z,16.20
2018-01-20T13:42:43.543Z,16.30
2018-01-20T13:45:11.339Z,16.30
2018-01-20T13:47:39.127Z,16.20
2018-01-20T13:50:07.851Z,16.30
2018-01-20T13:52:35.673Z,16.30
2018-01-20T13:55:04.232Z,16.30
2018-01-20T13:57:32.044Z,16.30
2018-01-20T13:59:59.834Z,16.30
2018-01-20T14:02:27.697Z,16.30
2018-01-20T14:04:56.407Z,16.30
2018-01-20T14:07:24.194Z,16.30
2018-01-20T14:09:52.760Z,16.30
2018-01-20T14:12:20.554Z,16.30
2018-01-20T14:14:48.339Z,16.30
2018-01-20T14:17:16.123Z,16.20
2018-01-20T14:19:43.914Z,16.20
2018-01-20T14:22:11.748Z,16.20
2018-01-20T14:24:39.514Z,16.10
2018-01-20T14:27:07.328Z,16.10
2018-01-20T14:29:35.159Z,16.10
2018-01-20T14:32:02.983Z,16.10
2018-01-20T14:34:30.758Z,16.00
2018-01-20T14:36:58.603Z,16.00
2018-01-20T14:39:27.178Z,16.00
2018-01-20T14:41:55.750Z,16.00
2018-01-20T14:44:23.532Z,16.00
2018-01-20T14:46:51.340Z,16.10
2018-01-20T14:49:19.142Z,16.10
2018-01-20T14:51:46.982Z,16.00
2018-01-20T14:54:14.792Z,16.10
2018-01-20T14:56:43.350Z,16.00
2018-01-20T14:59:11.118Z,16.00
2018-01-20T15:01:38.879Z,16.00
2018-01-20T15:04:06.680Z,16.00
2018-01-20T15:06:34.525Z,15.90
2018-01-20T15:09:03.223Z,15.80
2018-01-20T15:11:31.830Z,15.80
2018-01-20T15:13:59.644Z,15.80
2018-01-20T15:16:27.466Z,15.80
2018-01-20T15:18:55.286Z,15.80
2018-01-20T15:21:23.827Z,15.70
2018-01-20T15:23:51.638Z,15.60
2018-01-20T15:26:20.210Z,15.60
2018-01-20T15:28:47.982Z,15.50
2018-01-20T15:31:15.755Z,15.50
2018-01-20T15:33:43.649Z,15.50
2018-01-20T15:36:12.516Z,15.40
2018-01-20T15:38:41.105Z,15.40
2018-01-20T15:41:09.749Z,15.50
2018-01-20T15:43:37.573Z,15.50
2018-01-20T15:46:05.378Z,15.50
2018-01-20T15:48:34.192Z,15.40
2018-01-20T15:51:02.737Z,15.40
2018-01-20T15:53:30.511Z,15.40
2018-01-20T15:55:58.305Z,15.40
2018-01-20T15:58:26.931Z,15.30
2018-01-20T16:00:54.727Z,15.40
2018-01-20T16:03:22.521Z,15.30
2018-01-20T16:05:51.054Z,15.30
2018-01-20T16:08:18.938Z,15.20
2018-01-20T16:10:46.802Z,15.20
2018-01-20T16:13:14.651Z,15.20
2018-01-20T16:15:42.414Z,15.20
2018-01-20T16:18:10.995Z,15.20
2018-01-20T16:20:38.759Z,15.20
2018-01-20T16:23:06.627Z,15.20
2018-01-20T16:25:34.399Z,15.30
2018-01-20T16:28:02.184Z,15.30
2018-01-20T16:30:29.973Z,15.30
2018-01-20T16:32:58.500Z,15.30
2018-01-20T16:35:27.379Z,15.30
2018-01-20T16:37:55.222Z,15.30
2018-01-20T16:40:23.059Z,15.30
2018-01-20T16:42:50.860Z,15.30
2018-01-20T16:45:18.645Z,15.30
2018-01-20T16:47:46.597Z,15.30
2018-01-20T16:50:14.429Z,15.30
2018-01-20T16:52:42.992Z,15.30
2018-01-20T16:55:10.801Z,15.30
2018-01-20T16:57:38.606Z,15.30
2018-01-20T17:00:06.391Z,15.30
2018-01-20T17:02:34.187Z,15.30
2018-01-20T17:05:02.723Z,15.30
2018-01-20T17:07:30.482Z,15.30
2018-01-20T17:09:58.277Z,15.40
2018-01-20T17:12:26.146Z,15.40
2018-01-20T17:14:54.702Z,15.40
2018-01-20T17:17:22.480Z,15.30
2018-01-20T17:19:50.322Z,15.40
2018-01-20T17:22:18.128Z,15.40
2018-01-20T17:24:45.930Z,15.30
2018-01-20T17:27:13.789Z,15.40
2018-01-20T17:29:41.630Z,15.30
2018-01-20T17:32:10.196Z,15.40
2018-01-20T17:34:38.023Z,15.30
2018-01-20T17:37:05.878Z,15.40
2018-01-20T17:39:33.766Z,15.30
2018-01-20T17:42:01.555Z,15.40
2018-01-20T17:44:29.336Z,15.30
2018-01-20T17:46:57.352Z,15.30
2018-01-20T17:49:25.148Z,15.30
2018-01-20T17:51:52.948Z,15.30
2018-01-20T17:54:21.546Z,15.30
2018-01-20T17:56:49.312Z,15.30
2018-01-20T17:59:17.093Z,15.20
2018-01-20T18:01:44.928Z,15.20
2018-01-20T18:04:12.693Z,15.20
2018-01-20T18:06:40.538Z,15.20
2018-01-20T18:09:09.090Z,15.20
2018-01-20T18:11:36.923Z,15.20
2018-01-20T18:14:04.699Z,15.20
2018-01-20T18:16:32.471Z,15.20
2018-01-20T18:19:00.318Z,15.20
2018-01-20T18:21:28.258Z,15.20
2018-01-20T18:23:56.138Z,15.20
2018-01-20T18:26:23.911Z,15.20
2018-01-20T18:28:51.707Z,15.20
2018-01-20T18:31:19.545Z,15.20
2018-01-20T18:33:47.482Z,15.20
2018-01-20T18:36:16.125Z,15.10
2018-01-20T18:38:43.898Z,15.10
2018-01-20T18:41:11.664Z,15.10
2018-01-20T18:43:39.471Z,15.10
2018-01-20T18:46:08.066Z,15.00
2018-01-20T18:48:35.862Z,15.10
2018-01-20T18:51:03.626Z,15.00
2018-01-20T18:53:31.399Z,15.00
2018-01-20T18:55:59.194Z,15.00
2018-01-20T18:58:26.971Z,15.10
2018-01-20T19:00:55.715Z,15.10
2018-01-20T19:03:24.316Z,15.00
2018-01-20T19:05:52.120Z,15.00
2018-01-20T19:08:19.928Z,15.00
2018-01-20T19:10:47.708Z,15.00
2018-01-20T19:13:15.495Z,15.00
2018-01-20T19:15:44.134Z,15.00
2018-01-20T19:18:11.907Z,15.00
2018-01-20T19:20:39.771Z,15.00
2018-01-20T19:23:08.444Z,14.90
2018-01-20T19:25:36.513Z,14.90
2018-01-20T19:28:04.349Z,14.90
2018-01-20T19:30:32.247Z,14.90
2018-01-20T19:33:00.068Z,14.90
2018-01-20T19:35:28.606Z,14.90
2018-01-20T19:37:56.460Z,14.90
2018-01-20T19:40:24.315Z,14.90
2018-01-20T19:42:52.100Z,14.90
2018-01-20T19:45:19.888Z,14.90
2018-01-20T19:47:47.727Z,14.90
2018-01-20T19:50:15.511Z,14.90
2018-01-20T19:52:44.081Z,14.90
2018-01-20T19:55:11.876Z,14.90
2018-01-20T19:57:40.530Z,14.80
2018-01-20T20:00:08.354Z,14.80
2018-01-20T20:02:36.156Z,14.80
2018-01-20T20:05:04.054Z,14.80
2018-01-20T20:07:32.603Z,14.80
2018-01-20T20:10:00.378Z,14.80
2018-01-20T20:12:28.195Z,14.80
2018-01-20T20:14:56.123Z,14.80
2018-01-20T20:17:23.913Z,14.80
2018-01-20T20:19:52.453Z,14.80
2018-01-20T20:22:20.289Z,14.80
2018-01-20T20:24:48.155Z,14.80
2018-01-20T20:27:16.055Z,14.80
2018-01-20T20:29:43.906Z,14.80
2018-01-20T20:32:11.751Z,14.80
2018-01-20T20:34:39.537Z,14.80
2018-01-20T20:37:07.316Z,14.80
2018-01-20T20:39:35.112Z,14.80
2018-01-20T20:42:03.874Z,14.80
2018-01-20T20:44:31.735Z,14.80
2018-01-20T20:46:59.546Z,14.80
2018-01-20T20:49:27.374Z,14.80
2018-01-20T20:51:55.258Z,14.80
2018-01-20T20:54:23.109Z,14.80
2018-01-20T20:56:50.893Z,14.70
2018-01-20T20:59:18.706Z,14.70
2018-01-20T21:01:46.628Z,14.70
2018-01-20T21:04:14.419Z,14.70
2018-01-20T21:06:42.228Z,14.70
2018-01-20T21:09:10.055Z,14.70
2018-01-20T21:11:37.914Z,14.70
2018-01-20T21:14:06.525Z,14.60
2018-01-20T21:16:34.310Z,14.60
2018-01-20T21:19:02.096Z,14.60
2018-01-20T21:21:30.650Z,14.70
2018-01-20T21:23:58.488Z,14.70
2018-01-20T21:26:27.210Z,14.70
2018-01-20T21:28:57.132Z,14.60
2018-01-20T21:31:25.013Z,14.60
2018-01-20T21:33:52.825Z,14.60
2018-01-20T21:36:21.016Z,14.60
2018-01-20T21:38:48.851Z,14.60
2018-01-20T21:41:16.695Z,14.50
2018-01-20T21:43:44.514Z,14.50
2018-01-20T21:46:12.326Z,14.50
2018-01-20T21:48:41.007Z,14.50
2018-01-20T21:51:10.064Z,14.50
2018-01-20T21:53:39.870Z,14.50
2018-01-20T21:56:07.735Z,14.50
2018-01-20T21:58:35.671Z,14.50
2018-01-20T22:01:09.348Z,14.50
2018-01-20T22:03:37.239Z,14.50
2018-01-20T22:06:05.169Z,14.50
2018-01-20T22:08:33.742Z,14.40
2018-01-20T22:11:01.540Z,14.40
2018-01-20T22:13:29.630Z,14.40
2018-01-20T22:15:57.464Z,14.40
2018-01-20T22:18:25.290Z,14.40
2018-01-20T22:20:53.118Z,14.40
2018-01-20T22:23:21.093Z,14.40
2018-01-20T22:25:48.969Z,14.30
2018-01-20T22:28:16.824Z,14.30
2018-01-20T22:30:44.597Z,14.30
2018-01-20T22:33:12.434Z,14.20
2018-01-20T22:35:40.199Z,14.20
2018-01-20T22:38:08.070Z,14.20
2018-01-20T22:40:35.947Z,14.20
2018-01-20T22:43:03.883Z,14.20
2018-01-20T22:45:32.443Z,14.10
2018-01-20T22:48:00.240Z,14.10
2018-01-20T22:50:28.842Z,14.10
2018-01-20T22:52:56.654Z,14.10
2018-01-20T22:55:25.229Z,14.10
2018-01-20T22:57:53.235Z,14.10
2018-01-20T23:00:21.089Z,14.10
2018-01-20T23:02:48.924Z,14.10
2018-01-20T23:05:16.720Z,14.10
2018-01-20T23:07:44.526Z,14.00
2018-01-20T23:10:12.426Z,14.00
2018-01-20T23:12:40.274Z,14.00
2018-01-20T23:15:08.044Z,14.00
2018-01-20T23:17:35.838Z,14.00
2018-01-20T23:20:03.750Z,14.00
2018-01-20T23:22:31.552Z,14.00
2018-01-20T23:24:59.355Z,14.00
2018-01-20T23:27:27.127Z,14.00
2018-01-20T23:29:55.865Z,13.90
2018-01-20T23:32:23.916Z,13.90
2018-01-20T23:34:51.687Z,13.90
2018-01-20T23:37:20.236Z,13.80
2018-01-20T23:39:48.060Z,13.80
2018-01-20T23:42:16.723Z,13.80
2018-01-20T23:44:44.634Z,13.80
2018-01-20T23:47:12.439Z,13.80
2018-01-20T23:49:40.223Z,13.80
2018-01-20T23:52:07.991Z,13.70
2018-01-20T23:54:35.937Z,13.80
2018-01-20T23:57:03.714Z,13.70
2018-01-20T23:59:31.566Z,13.70
